createdAt,value
2022-12-27T00:01:31.464Z,96717.91
2022-12-27T00:03:58.009Z,96729.91
2022-12-27T00:06:25.104Z,96723.91
2022-12-27T00:08:51.752Z,96723.25
2022-12-27T00:11:20.398Z,96726.78
2022-12-27T00:13:47.006Z,96707.91
2022-12-27T00:16:15.628Z,96723.66
2022-12-27T00:18:42.185Z,96735.66
2022-12-27T00:21:10.121Z,96732.16
2022-12-27T00:23:38.190Z,96745.09
2022-12-27T00:26:06.388Z,96752.50
2022-12-27T00:28:33.371Z,96759.47
2022-12-27T00:30:59.973Z,96781.56
2022-12-27T00:33:30.249Z,96808.34
2022-12-27T00:35:58.854Z,96835.75
2022-12-27T00:38:25.229Z,96884.22
2022-12-27T00:40:51.578Z,96928.97
2022-12-27T00:43:18.058Z,96968.75
2022-12-27T00:45:44.533Z,96991.81
2022-12-27T00:48:10.977Z,97033.91
2022-12-27T00:50:38.959Z,97088.22
2022-12-27T00:53:05.363Z,97112.25
2022-12-27T00:55:31.735Z,97131.16
2022-12-27T00:57:58.127Z,97120.09
2022-12-27T01:00:24.542Z,97134.84
2022-12-27T01:02:50.950Z,97147.94
2022-12-27T01:05:17.377Z,97156.66
2022-12-27T01:07:44.223Z,97166.31
2022-12-27T01:10:10.613Z,97169.75
2022-12-27T01:12:37.219Z,97165.75
2022-12-27T01:15:05.047Z,97180.19
2022-12-27T01:17:31.417Z,97181.13
2022-12-27T01:19:57.783Z,97186.13
2022-12-27T01:22:24.149Z,97198.50
2022-12-27T01:24:50.484Z,97215.72
2022-12-27T01:27:17.081Z,97224.56
2022-12-27T01:29:44.082Z,97215.72
2022-12-27T01:32:10.453Z,97226.38
2022-12-27T01:34:37.061Z,97228.09
2022-12-27T01:37:03.614Z,97242.78
2022-12-27T01:39:29.993Z,97249.47
2022-12-27T01:42:14.943Z,97268.25
2022-12-27T01:44:43.449Z,97261.19
2022-12-27T01:47:12.568Z,97221.56
2022-12-27T01:49:44.299Z,97161.75
2022-12-27T01:52:10.677Z,97130.47
2022-12-27T01:54:37.075Z,97123.47
2022-12-27T01:57:03.964Z,97121.59
2022-12-27T01:59:30.396Z,97146.78
2022-12-27T02:01:56.856Z,97184.78
2022-12-27T02:04:24.744Z,97183.19
2022-12-27T02:06:51.110Z,97182.47
2022-12-27T02:09:40.822Z,97165.22
2022-12-27T02:12:07.578Z,97188.47
2022-12-27T02:14:34.220Z,97205.16
2022-12-27T02:17:08.327Z,97201.84
2022-12-27T02:19:40.837Z,97215.88
2022-12-27T02:22:29.718Z,97213.06
2022-12-27T02:25:11.589Z,97223.28
2022-12-27T02:27:46.888Z,97248.13
2022-12-27T02:30:13.421Z,97268.84
2022-12-27T02:32:39.765Z,97289.66
2022-12-27T02:35:17.133Z,97305.94
2022-12-27T02:37:47.767Z,97308.63
2022-12-27T02:40:33.935Z,97313.94
2022-12-27T02:43:18.876Z,97315.47
2022-12-27T02:46:09.171Z,97314.13
2022-12-27T02:48:54.211Z,97311.97
2022-12-27T02:52:01.691Z,97315.47
2022-12-27T02:54:44.532Z,97318.91
2022-12-27T02:57:16.846Z,97311.97
2022-12-27T03:00:14.116Z,97296.59
2022-12-27T03:03:21.404Z,97292.06
2022-12-27T03:06:25.503Z,97291.91
2022-12-27T03:09:39.219Z,97297.03
2022-12-27T03:12:44.497Z,97291.91
2022-12-27T03:15:57.337Z,97284.06
2022-12-27T03:19:01.596Z,97275.53
2022-12-27T03:21:53.011Z,97262.56
2022-12-27T03:24:41.475Z,97249.81
2022-12-27T03:27:18.306Z,97229.59
2022-12-27T03:30:27.738Z,97223.56
2022-12-27T03:33:15.521Z,97218.38
2022-12-27T03:36:05.807Z,97220.19
2022-12-27T03:38:36.440Z,97206.50
2022-12-27T03:41:22.021Z,97208.03
2022-12-27T03:43:48.387Z,97199.31
2022-12-27T03:46:34.622Z,97209.75
2022-12-27T03:49:06.809Z,97209.53
2022-12-27T03:51:37.311Z,97226.72
2022-12-27T03:54:32.074Z,97236.09
2022-12-27T03:57:04.214Z,97224.72
2022-12-27T03:59:30.580Z,97236.75
2022-12-27T04:01:58.546Z,97233.41
2022-12-27T04:04:24.985Z,97235.09
2022-12-27T04:06:51.577Z,97238.53
2022-12-27T04:09:36.502Z,97227.16
2022-12-27T04:12:21.577Z,97227.16
2022-12-27T04:15:06.305Z,97219.19
2022-12-27T04:17:51.253Z,97212.91
2022-12-27T04:20:36.122Z,97210.50
2022-12-27T04:23:20.972Z,97201.81
2022-12-27T04:26:05.884Z,97187.84
2022-12-27T04:28:50.838Z,97188.09
2022-12-27T04:31:35.978Z,97172.53
2022-12-27T04:34:21.169Z,97160.34
2022-12-27T04:36:47.510Z,97154.25
2022-12-27T04:39:14.054Z,97163.50
2022-12-27T04:41:59.006Z,97161.84
2022-12-27T04:44:44.075Z,97152.97
2022-12-27T04:47:31.792Z,97144.44
2022-12-27T04:50:16.767Z,97142.50
2022-12-27T04:53:01.852Z,97138.94
2022-12-27T04:55:29.161Z,97135.41
2022-12-27T04:57:55.923Z,97136.06
2022-12-27T05:00:42.596Z,97141.72
2022-12-27T05:03:19.847Z,97143.38
2022-12-27T05:05:46.332Z,97143.38
2022-12-27T05:08:31.301Z,97140.78
2022-12-27T05:11:16.530Z,97135.44
2022-12-27T05:14:01.276Z,97129.97
2022-12-27T05:16:37.733Z,97122.09
2022-12-27T05:19:05.504Z,97145.84
2022-12-27T05:21:36.061Z,97157.72
2022-12-27T05:24:21.114Z,97174.56
2022-12-27T05:26:47.838Z,97177.16
2022-12-27T05:29:14.213Z,97189.78
2022-12-27T05:31:40.616Z,97186.44
2022-12-27T05:34:07.063Z,97192.19
2022-12-27T05:36:33.692Z,97208.41
2022-12-27T05:39:00.100Z,97210.00
2022-12-27T05:41:26.720Z,97215.19
2022-12-27T05:43:53.075Z,97228.88
2022-12-27T05:46:20.818Z,97209.88
2022-12-27T05:48:47.536Z,97211.56
2022-12-27T05:51:18.354Z,97208.97
2022-12-27T05:53:45.024Z,97214.09
2022-12-27T05:56:15.901Z,97228.72
2022-12-27T05:58:42.597Z,97243.91
2022-12-27T06:01:12.213Z,97248.94
2022-12-27T06:03:38.690Z,97247.91
2022-12-27T06:06:06.893Z,97277.41
2022-12-27T06:08:34.240Z,97274.53
2022-12-27T06:11:21.140Z,97300.88
2022-12-27T06:13:52.021Z,97298.44
2022-12-27T06:16:18.786Z,97311.25
2022-12-27T06:18:45.169Z,97323.22
2022-12-27T06:21:13.720Z,97331.09
2022-12-27T06:23:40.964Z,97344.72
2022-12-27T06:26:08.231Z,97371.34
2022-12-27T06:28:34.880Z,97372.25
2022-12-27T06:31:01.623Z,97351.31
2022-12-27T06:33:28.326Z,97353.19
2022-12-27T06:35:54.758Z,97360.03
2022-12-27T06:38:21.228Z,97363.38
2022-12-27T06:40:47.592Z,97387.50
2022-12-27T06:43:14.170Z,97382.31
2022-12-27T06:45:40.572Z,97398.63
2022-12-27T06:48:07.029Z,97406.41
2022-12-27T06:50:33.355Z,97394.19
2022-12-27T06:52:59.711Z,97366.53
2022-12-27T06:55:26.293Z,97305.25
2022-12-27T06:57:54.850Z,97233.09
2022-12-27T07:00:21.539Z,97140.69
2022-12-27T07:02:48.289Z,97071.94
2022-12-27T07:05:14.847Z,97011.50
2022-12-27T07:07:41.216Z,97006.13
2022-12-27T07:10:07.997Z,97008.16
2022-12-27T07:12:36.775Z,97021.88
2022-12-27T07:15:07.712Z,97059.69
2022-12-27T07:17:35.665Z,97091.75
2022-12-27T07:20:06.183Z,97121.16
2022-12-27T07:22:32.776Z,97167.88
2022-12-27T07:24:59.278Z,97187.59
2022-12-27T07:27:25.740Z,97202.16
2022-12-27T07:29:52.161Z,97222.06
2022-12-27T07:32:18.542Z,97228.94
2022-12-27T07:34:44.907Z,97224.59
2022-12-27T07:37:11.275Z,97240.88
2022-12-27T07:39:37.624Z,97226.34
2022-12-27T07:42:08.180Z,97222.63
2022-12-27T07:44:35.099Z,97251.19
2022-12-27T07:47:01.678Z,97272.78
2022-12-27T07:49:28.341Z,97266.38
2022-12-27T07:51:54.714Z,97278.63
2022-12-27T07:54:21.090Z,97290.88
2022-12-27T07:56:47.471Z,97321.66
2022-12-27T07:59:14.079Z,97332.03
2022-12-27T08:01:59.318Z,97328.34
2022-12-27T08:04:25.756Z,97323.31
2022-12-27T08:06:52.129Z,97352.81
2022-12-27T08:09:21.937Z,97351.88
2022-12-27T08:11:48.524Z,97354.47
2022-12-27T08:14:14.878Z,97335.38
2022-12-27T08:16:41.264Z,97310.25
2022-12-27T08:19:08.779Z,97318.13
2022-12-27T08:21:35.278Z,97326.69
2022-12-27T08:24:01.639Z,97333.72
2022-12-27T08:26:27.992Z,97340.69
2022-12-27T08:28:54.383Z,97341.25
2022-12-27T08:31:20.823Z,97350.94
2022-12-27T08:33:47.224Z,97358.56
2022-12-27T08:36:54.260Z,97376.59
2022-12-27T08:39:00.215Z,97383.59
2022-12-27T08:41:26.621Z,97377.41
2022-12-27T08:43:52.992Z,97397.34
2022-12-27T08:46:19.633Z,97394.84
2022-12-27T08:48:49.570Z,97402.53
2022-12-27T08:51:24.772Z,97407.75
2022-12-27T08:53:56.964Z,97420.72
2022-12-27T08:56:23.361Z,97434.44
2022-12-27T08:58:50.131Z,97442.06
2022-12-27T09:01:16.615Z,97452.44
2022-12-27T09:03:43.033Z,97457.00
2022-12-27T09:06:14.291Z,97469.69
2022-12-27T09:08:40.723Z,97467.19
2022-12-27T09:11:14.988Z,97503.53
2022-12-27T09:13:41.527Z,97525.97
2022-12-27T09:16:13.040Z,97519.63
2022-12-27T09:18:39.890Z,97518.09
2022-12-27T09:21:17.210Z,97521.28
2022-12-27T09:23:43.751Z,97543.00
2022-12-27T09:26:17.619Z,97532.53
2022-12-27T09:28:44.122Z,97526.16
2022-12-27T09:31:11.118Z,97559.00
2022-12-27T09:33:37.604Z,97572.72
2022-12-27T09:36:08.417Z,97609.28
2022-12-27T09:38:35.037Z,97624.84
2022-12-27T09:41:03.763Z,97639.34
2022-12-27T09:43:37.157Z,97651.34
2022-12-27T09:46:03.559Z,97679.81
2022-12-27T09:48:35.122Z,97657.03
2022-12-27T09:51:21.891Z,97667.25
2022-12-27T09:54:01.535Z,97662.81
2022-12-27T09:56:47.360Z,97679.31
2022-12-27T09:59:18.232Z,97678.22
2022-12-27T10:01:45.361Z,97673.03
2022-12-27T10:04:13.059Z,97686.94
2022-12-27T10:06:48.992Z,97697.91
2022-12-27T10:09:30.341Z,97696.09
2022-12-27T10:12:05.888Z,97690.72
2022-12-27T10:14:41.452Z,97709.97
2022-12-27T10:17:26.063Z,97706.31
2022-12-27T10:20:12.687Z,97695.91
2022-12-27T10:23:04.275Z,97716.88
2022-12-27T10:25:32.324Z,97773.88
2022-12-27T10:28:00.760Z,97787.66
2022-12-27T10:30:27.478Z,97788.66
2022-12-27T10:32:54.104Z,97797.06
2022-12-27T10:35:20.704Z,97789.00
2022-12-27T10:37:47.395Z,97790.19
2022-12-27T10:40:22.577Z,97771.50
2022-12-27T10:43:00.183Z,97787.88
2022-12-27T10:45:39.539Z,97810.34
2022-12-27T10:48:23.421Z,97864.28
2022-12-27T10:50:55.781Z,97871.75
2022-12-27T10:53:52.303Z,97853.59
2022-12-27T10:56:35.611Z,97865.00
2022-12-27T10:59:18.385Z,97857.91
2022-12-27T11:01:46.199Z,97874.41
2022-12-27T11:04:21.736Z,97849.09
2022-12-27T11:07:10.660Z,97860.19
2022-12-27T11:09:38.010Z,97853.72
2022-12-27T11:12:36.070Z,97885.84
2022-12-27T11:15:11.728Z,97890.13
2022-12-27T11:17:40.832Z,97898.94
2022-12-27T11:20:32.664Z,97902.44
2022-12-27T11:23:05.290Z,97919.22
2022-12-27T11:25:31.941Z,97888.84
2022-12-27T11:28:04.551Z,97881.31
2022-12-27T11:30:32.949Z,97867.69
2022-12-27T11:33:06.590Z,97775.84
2022-12-27T11:35:34.269Z,97572.03
2022-12-27T11:38:00.622Z,97351.56
2022-12-27T11:40:30.519Z,97123.03
2022-12-27T11:43:03.385Z,96879.41
2022-12-27T11:45:44.373Z,96703.03
2022-12-27T11:48:37.292Z,96507.69
2022-12-27T11:51:48.260Z,96379.28
2022-12-27T11:54:52.724Z,96280.72
2022-12-27T11:57:21.885Z,96179.28
2022-12-27T12:00:06.072Z,96096.53
2022-12-27T12:02:48.931Z,96009.28
2022-12-27T12:05:56.327Z,95936.69
2022-12-27T12:09:00.010Z,95859.66
2022-12-27T12:11:35.675Z,95790.91
2022-12-27T12:14:11.592Z,95757.19
2022-12-27T12:16:56.308Z,95740.69
2022-12-27T12:19:55.196Z,95718.63
2022-12-27T12:22:45.765Z,95692.19
2022-12-27T12:25:41.940Z,95756.09
2022-12-27T12:28:59.331Z,95850.91
2022-12-27T12:31:29.221Z,95935.69
2022-12-27T12:34:19.883Z,95998.63
2022-12-27T12:36:53.092Z,96028.47
2022-12-27T12:39:47.758Z,96118.63
2022-12-27T12:42:37.321Z,96208.56
2022-12-27T12:45:06.839Z,96266.66
2022-12-27T12:47:39.240Z,96365.88
2022-12-27T12:50:13.766Z,96486.44
2022-12-27T12:52:47.514Z,96673.19
2022-12-27T12:55:23.054Z,96817.69
2022-12-27T12:58:14.370Z,96896.44
2022-12-27T13:00:43.229Z,97032.34
2022-12-27T13:03:27.799Z,97074.84
2022-12-27T13:06:00.090Z,97121.25
2022-12-27T13:08:34.086Z,97190.66
2022-12-27T13:11:06.678Z,97255.72
2022-12-27T13:13:48.265Z,97415.03
2022-12-27T13:16:18.931Z,97492.00
2022-12-27T13:19:16.213Z,97522.19
2022-12-27T13:22:01.333Z,97519.66
2022-12-27T13:24:57.083Z,97523.38
2022-12-27T13:27:44.836Z,97525.03
2022-12-27T13:30:21.371Z,97553.81
2022-12-27T13:33:03.435Z,97641.44
2022-12-27T13:35:54.634Z,97695.84
2022-12-27T13:38:35.049Z,97708.94
2022-12-27T13:41:24.974Z,97643.13
2022-12-27T13:44:00.461Z,97623.25
2022-12-27T13:46:57.422Z,97585.25
2022-12-27T13:50:01.404Z,97588.13
2022-12-27T13:52:52.243Z,97634.91
2022-12-27T13:55:54.728Z,97640.78
2022-12-27T13:58:33.356Z,97600.94
2022-12-27T14:01:24.162Z,97560.13
2022-12-27T14:04:05.531Z,97517.69
2022-12-27T14:07:26.407Z,97535.06
2022-12-27T14:10:20.695Z,97563.66
2022-12-27T14:12:57.167Z,97610.44
2022-12-27T14:15:46.960Z,97607.66
2022-12-27T14:18:22.296Z,97605.03
2022-12-27T14:21:26.442Z,97625.84
2022-12-27T14:24:26.678Z,97692.59
2022-12-27T14:27:06.529Z,97736.00
2022-12-27T14:29:54.000Z,97758.66
2022-12-27T14:32:32.517Z,97768.47
2022-12-27T14:35:38.077Z,97796.41
2022-12-27T14:38:18.850Z,97803.38
2022-12-27T14:40:56.855Z,97841.63
2022-12-27T14:43:42.074Z,97836.25
2022-12-27T14:46:30.422Z,97841.91
2022-12-27T14:49:15.552Z,97845.28
2022-12-27T14:52:04.431Z,97861.09
2022-12-27T14:54:43.751Z,97900.41
2022-12-27T14:57:37.569Z,97890.31
2022-12-27T15:00:25.454Z,97861.81
2022-12-27T15:03:08.432Z,97839.84
2022-12-27T15:05:53.269Z,97832.13
2022-12-27T15:08:28.687Z,97810.03
2022-12-27T15:11:32.778Z,97803.31
2022-12-27T15:14:26.910Z,97806.09
2022-12-27T15:17:02.493Z,97799.03
2022-12-27T15:19:40.441Z,97775.94
2022-12-27T15:22:48.444Z,97745.78
2022-12-27T15:25:29.947Z,97717.28
2022-12-27T15:28:02.161Z,97723.47
2022-12-27T15:30:35.361Z,97711.31
2022-12-27T15:33:20.591Z,97699.34
2022-12-27T15:35:52.328Z,97668.38
2022-12-27T15:38:37.834Z,97644.41
2022-12-27T15:41:07.320Z,97599.50
2022-12-27T15:44:08.132Z,97568.56
2022-12-27T15:47:19.711Z,97530.69
2022-12-27T15:50:14.418Z,97498.19
2022-12-27T15:52:53.241Z,97475.78
2022-12-27T15:55:44.622Z,97472.59
2022-12-27T15:58:15.007Z,97480.38
2022-12-27T16:00:42.858Z,97492.78
2022-12-27T16:03:29.813Z,97466.25
2022-12-27T16:05:56.923Z,97455.09
2022-12-27T16:08:27.727Z,97443.97
2022-12-27T16:10:54.534Z,97367.25
2022-12-27T16:13:41.944Z,97328.09
2022-12-27T16:16:11.451Z,97288.22
2022-12-27T16:18:59.875Z,97263.16
2022-12-27T16:21:26.911Z,97224.69
2022-12-27T16:23:55.236Z,97181.00
2022-12-27T16:26:26.370Z,97120.91
2022-12-27T16:28:54.274Z,97107.72
2022-12-27T16:31:23.079Z,97098.25
2022-12-27T16:33:49.519Z,97079.97
2022-12-27T16:36:20.055Z,97040.81
2022-12-27T16:38:52.394Z,96972.78
2022-12-27T16:41:23.950Z,96927.28
2022-12-27T16:43:59.524Z,96875.88
2022-12-27T16:47:00.024Z,96811.25
2022-12-27T16:49:55.398Z,96760.69
2022-12-27T16:52:52.100Z,96712.44
2022-12-27T16:55:43.331Z,96652.63
2022-12-27T16:58:39.205Z,96588.59
2022-12-27T17:01:07.071Z,96546.03
2022-12-27T17:03:36.530Z,96514.59
2022-12-27T17:06:33.967Z,96472.75
2022-12-27T17:09:24.342Z,96465.94
2022-12-27T17:11:50.716Z,96449.97
2022-12-27T17:14:39.121Z,96434.97
2022-12-27T17:17:17.553Z,96406.91
2022-12-27T17:19:55.510Z,96411.03
2022-12-27T17:22:25.190Z,96417.16
2022-12-27T17:24:56.707Z,96439.94
2022-12-27T17:27:32.083Z,96441.06
2022-12-27T17:30:20.382Z,96402.75
2022-12-27T17:33:00.072Z,96397.56
2022-12-27T17:35:35.638Z,96379.75
2022-12-27T17:38:20.400Z,96395.50
2022-12-27T17:40:49.746Z,96401.94
2022-12-27T17:43:56.172Z,96424.72
2022-12-27T17:46:41.699Z,96457.66
2022-12-27T17:49:08.677Z,96487.59
2022-12-27T17:51:35.437Z,96502.38
2022-12-27T17:54:20.499Z,96504.44
2022-12-27T17:57:15.651Z,96459.53
2022-12-27T17:59:42.840Z,96420.16
2022-12-27T18:02:19.015Z,96444.28
2022-12-27T18:04:48.534Z,96472.59
2022-12-27T18:07:14.915Z,96475.88
2022-12-27T18:09:56.154Z,96456.63
2022-12-27T18:12:29.696Z,96461.16
2022-12-27T18:15:02.778Z,96460.53
2022-12-27T18:17:52.011Z,96491.00
2022-12-27T18:20:28.058Z,96544.09
2022-12-27T18:23:00.502Z,96599.25
2022-12-27T18:25:37.710Z,96654.03
2022-12-27T18:28:04.148Z,96712.56
2022-12-27T18:30:37.098Z,96765.66
2022-12-27T18:33:03.604Z,96804.91
2022-12-27T18:35:29.967Z,96820.28
2022-12-27T18:37:56.362Z,96859.94
2022-12-27T18:40:23.890Z,96901.88
2022-12-27T18:42:51.433Z,96924.94
2022-12-27T18:45:22.719Z,96939.59
2022-12-27T18:47:50.960Z,96966.25
2022-12-27T18:50:21.278Z,96966.06
2022-12-27T18:52:52.924Z,96967.72
2022-12-27T18:55:27.523Z,96964.59
2022-12-27T18:58:19.867Z,96935.88
2022-12-27T19:01:19.395Z,96908.03
2022-12-27T19:04:13.779Z,96886.44
2022-12-27T19:06:58.756Z,96858.53
2022-12-27T19:09:28.211Z,96832.34
2022-12-27T19:12:01.387Z,96814.72
2022-12-27T19:14:36.536Z,96781.53
2022-12-27T19:17:10.421Z,96773.00
2022-12-27T19:19:37.492Z,96767.59
2022-12-27T19:22:03.983Z,96761.47
2022-12-27T19:24:33.539Z,96739.75
2022-12-27T19:27:15.846Z,96717.75
2022-12-27T19:29:50.627Z,96708.91
2022-12-27T19:32:22.119Z,96687.00
2022-12-27T19:34:52.647Z,96679.72
2022-12-27T19:37:19.299Z,96668.50
2022-12-27T19:39:46.291Z,96653.56
2022-12-27T19:42:18.309Z,96637.72
2022-12-27T19:44:44.661Z,96624.66
2022-12-27T19:47:14.365Z,96606.38
2022-12-27T19:49:42.666Z,96597.63
2022-12-27T19:52:28.408Z,96572.25
2022-12-27T19:55:01.078Z,96560.84
2022-12-27T19:57:27.578Z,96575.13
2022-12-27T19:59:54.995Z,96579.53
2022-12-27T20:02:22.153Z,96596.56
2022-12-27T20:04:48.701Z,96606.19
2022-12-27T20:07:20.721Z,96616.50
2022-12-27T20:09:47.261Z,96631.03
2022-12-27T20:12:15.658Z,96638.72
2022-12-27T20:14:42.080Z,96674.03
2022-12-27T20:17:08.451Z,96693.03
2022-12-27T20:19:35.059Z,96703.44
2022-12-27T20:22:01.901Z,96729.22
2022-12-27T20:24:29.809Z,96745.66
2022-12-27T20:26:56.176Z,96754.41
2022-12-27T20:29:23.236Z,96759.59
2022-12-27T20:31:52.081Z,96794.78
2022-12-27T20:34:18.565Z,96818.19
2022-12-27T20:36:44.963Z,96838.88
2022-12-27T20:39:11.315Z,96883.97
2022-12-27T20:41:37.780Z,96898.44
2022-12-27T20:44:04.358Z,96931.28
2022-12-27T20:46:30.765Z,96950.22
2022-12-27T20:48:57.302Z,96948.44
2022-12-27T20:51:27.644Z,96948.63
2022-12-27T20:53:58.540Z,96962.38
2022-12-27T20:56:25.067Z,96965.91
2022-12-27T20:58:51.515Z,96997.72
2022-12-27T21:01:19.930Z,97019.53
2022-12-27T21:03:46.568Z,97021.28
2022-12-27T21:06:15.005Z,97054.97
2022-12-27T21:08:47.747Z,97071.31
2022-12-27T21:11:23.229Z,97092.31
2022-12-27T21:13:49.760Z,97109.56
2022-12-27T21:16:20.975Z,97113.09
2022-12-27T21:18:47.922Z,97119.94
2022-12-27T21:21:19.443Z,97128.69
2022-12-27T21:23:46.272Z,97139.09
2022-12-27T21:26:17.836Z,97120.13
2022-12-27T21:28:44.355Z,97142.81
2022-12-27T21:31:11.110Z,97171.31
2022-12-27T21:33:37.728Z,97169.41
2022-12-27T21:36:10.243Z,97146.34
2022-12-27T21:38:36.803Z,97181.88
2022-12-27T21:41:08.136Z,97189.59
2022-12-27T21:43:34.507Z,97193.31
2022-12-27T21:46:08.164Z,97203.69
2022-12-27T21:48:35.043Z,97215.13
2022-12-27T21:51:08.982Z,97217.63
2022-12-27T21:53:35.460Z,97219.50
2022-12-27T21:56:01.999Z,97243.97
2022-12-27T21:58:32.800Z,97251.56
2022-12-27T22:01:06.533Z,97250.81
2022-12-27T22:03:35.932Z,97246.56
2022-12-27T22:06:17.911Z,97260.75
2022-12-27T22:08:45.795Z,97256.50
2022-12-27T22:11:12.353Z,97265.31
2022-12-27T22:13:39.076Z,97260.84
2022-12-27T22:16:06.800Z,97239.50
2022-12-27T22:18:36.941Z,97228.66
2022-12-27T22:21:06.435Z,97246.00
2022-12-27T22:23:33.838Z,97265.88
2022-12-27T22:26:00.198Z,97266.78
2022-12-27T22:28:26.695Z,97256.50
2022-12-27T22:30:53.164Z,97269.75
2022-12-27T22:33:19.554Z,97312.97
2022-12-27T22:35:46.117Z,97324.03
2022-12-27T22:38:12.495Z,97344.81
2022-12-27T22:40:46.144Z,97363.09
2022-12-27T22:43:13.251Z,97361.44
2022-12-27T22:45:42.801Z,97371.13
2022-12-27T22:48:09.522Z,97366.97
2022-12-27T22:50:37.979Z,97374.75
2022-12-27T22:53:04.535Z,97374.19
2022-12-27T22:55:30.937Z,97364.16
2022-12-27T22:57:57.332Z,97376.22
2022-12-27T23:00:23.729Z,97384.94
2022-12-27T23:02:50.110Z,97393.19
2022-12-27T23:05:16.765Z,97395.66
2022-12-27T23:08:03.330Z,97395.84
2022-12-27T23:10:29.545Z,97389.00
2022-12-27T23:12:56.525Z,97396.38
2022-12-27T23:15:22.894Z,97381.63
2022-12-27T23:17:49.476Z,97374.13
2022-12-27T23:20:15.839Z,97362.06
2022-12-27T23:22:42.180Z,97358.13
2022-12-27T23:25:08.914Z,97359.06
2022-12-27T23:27:35.264Z,97374.63
2022-12-27T23:30:01.650Z,97378.16
2022-12-27T23:32:28.014Z,97373.13
2022-12-27T23:34:54.397Z,97373.91
2022-12-27T23:37:20.765Z,97361.91
2022-12-27T23:39:47.131Z,97352.72
2022-12-27T23:42:13.494Z,97345.88
2022-12-27T23:44:39.824Z,97345.88
2022-12-27T23:47:06.540Z,97337.91
2022-12-27T23:49:33.267Z,97334.81
2022-12-27T23:51:59.646Z,97324.44
2022-12-27T23:54:26.225Z,97318.44
2022-12-27T23:56:52.577Z,97314.91
2022-12-27T23:59:18.984Z,97307.13
